sensor_id;sensor_type;location;lat;lon;timestamp;P1;durP1;ratioP1;P2;durP2;ratioP2
49241;SDS011;35079;52.704;13.814;2023-12-07T00:01:00;73.57;;;31.13;;
49241;SDS011;35079;52.704;13.814;2023-12-07T00:03:26;74.10;;;30.13;;
49241;SDS011;35079;52.704;13.814;2023-12-07T00:05:51;72.70;;;31.33;;
49241;SDS011;35079;52.704;13.814;2023-12-07T00:08:17;69.25;;;29.25;;
49241;SDS011;35079;52.704;13.814;2023-12-07T00:10:43;71.90;;;30.63;;
49241;SDS011;35079;52.704;13.814;2023-12-07T00:13:08;67.82;;;29.63;;
49241;SDS011;35079;52.704;13.814;2023-12-07T00:15:34;63.00;;;29.30;;
49241;SDS011;35079;52.704;13.814;2023-12-07T00:17:59;61.33;;;27.70;;
49241;SDS011;35079;52.704;13.814;2023-12-07T00:20:25;58.22;;;27.77;;
49241;SDS011;35079;52.704;13.814;2023-12-07T00:22:51;57.97;;;25.35;;
49241;SDS011;35079;52.704;13.814;2023-12-07T00:25:16;58.17;;;26.15;;
49241;SDS011;35079;52.704;13.814;2023-12-07T00:27:42;56.65;;;26.00;;
49241;SDS011;35079;52.704;13.814;2023-12-07T00:30:08;48.75;;;24.20;;
49241;SDS011;35079;52.704;13.814;2023-12-07T00:32:34;48.60;;;23.50;;
49241;SDS011;35079;52.704;13.814;2023-12-07T00:35:00;50.95;;;24.35;;
49241;SDS011;35079;52.704;13.814;2023-12-07T00:37:26;50.90;;;23.80;;
49241;SDS011;35079;52.704;13.814;2023-12-07T00:39:52;47.65;;;22.40;;
49241;SDS011;35079;52.704;13.814;2023-12-07T00:42:17;49.95;;;22.80;;
49241;SDS011;35079;52.704;13.814;2023-12-07T00:44:43;44.42;;;21.75;;
49241;SDS011;35079;52.704;13.814;2023-12-07T00:47:09;44.70;;;21.95;;
49241;SDS011;35079;52.704;13.814;2023-12-07T00:49:38;43.42;;;22.27;;
49241;SDS011;35079;52.704;13.814;2023-12-07T00:52:05;42.17;;;22.02;;
49241;SDS011;35079;52.704;13.814;2023-12-07T00:54:31;42.88;;;21.25;;
49241;SDS011;35079;52.704;13.814;2023-12-07T00:56:57;37.05;;;20.65;;
49241;SDS011;35079;52.704;13.814;2023-12-07T00:59:23;40.25;;;20.15;;
49241;SDS011;35079;52.704;13.814;2023-12-07T01:01:49;38.70;;;20.30;;
49241;SDS011;35079;52.704;13.814;2023-12-07T01:04:14;34.38;;;18.70;;
49241;SDS011;35079;52.704;13.814;2023-12-07T01:06:41;38.95;;;19.05;;
49241;SDS011;35079;52.704;13.814;2023-12-07T01:09:07;37.17;;;19.35;;
49241;SDS011;35079;52.704;13.814;2023-12-07T01:11:38;40.03;;;20.67;;
49241;SDS011;35079;52.704;13.814;2023-12-07T01:14:07;35.88;;;18.67;;
49241;SDS011;35079;52.704;13.814;2023-12-07T01:16:33;34.10;;;18.35;;
49241;SDS011;35079;52.704;13.814;2023-12-07T01:18:58;31.98;;;18.10;;
49241;SDS011;35079;52.704;13.814;2023-12-07T01:21:24;35.33;;;19.58;;
49241;SDS011;35079;52.704;13.814;2023-12-07T01:23:49;33.00;;;18.50;;
49241;SDS011;35079;52.704;13.814;2023-12-07T01:26:15;34.78;;;19.60;;
49241;SDS011;35079;52.704;13.814;2023-12-07T01:28:41;30.50;;;17.65;;
49241;SDS011;35079;52.704;13.814;2023-12-07T01:31:06;34.17;;;18.90;;
49241;SDS011;35079;52.704;13.814;2023-12-07T01:33:32;34.90;;;18.55;;
49241;SDS011;35079;52.704;13.814;2023-12-07T01:35:58;36.20;;;18.42;;
49241;SDS011;35079;52.704;13.814;2023-12-07T01:38:23;29.85;;;17.35;;
49241;SDS011;35079;52.704;13.814;2023-12-07T01:40:49;32.55;;;17.98;;
49241;SDS011;35079;52.704;13.814;2023-12-07T01:43:15;31.08;;;17.83;;
49241;SDS011;35079;52.704;13.814;2023-12-07T01:45:40;32.00;;;17.83;;
49241;SDS011;35079;52.704;13.814;2023-12-07T01:48:06;34.30;;;18.50;;
49241;SDS011;35079;52.704;13.814;2023-12-07T01:50:32;32.67;;;18.10;;
49241;SDS011;35079;52.704;13.814;2023-12-07T01:53:02;33.55;;;18.88;;
49241;SDS011;35079;52.704;13.814;2023-12-07T01:55:28;30.80;;;17.88;;
49241;SDS011;35079;52.704;13.814;2023-12-07T01:57:57;29.75;;;17.60;;
49241;SDS011;35079;52.704;13.814;2023-12-07T02:00:23;32.97;;;18.38;;
49241;SDS011;35079;52.704;13.814;2023-12-07T02:02:51;30.80;;;17.10;;
49241;SDS011;35079;52.704;13.814;2023-12-07T02:05:17;26.27;;;16.52;;
49241;SDS011;35079;52.704;13.814;2023-12-07T02:07:42;31.85;;;18.08;;
49241;SDS011;35079;52.704;13.814;2023-12-07T02:10:09;29.90;;;17.08;;
49241;SDS011;35079;52.704;13.814;2023-12-07T02:12:36;31.50;;;16.70;;
49241;SDS011;35079;52.704;13.814;2023-12-07T02:15:02;30.27;;;17.35;;
49241;SDS011;35079;52.704;13.814;2023-12-07T02:22:42;31.58;;;17.80;;
49241;SDS011;35079;52.704;13.814;2023-12-07T02:25:13;31.23;;;18.27;;
49241;SDS011;35079;52.704;13.814;2023-12-07T02:27:40;31.50;;;18.13;;
49241;SDS011;35079;52.704;13.814;2023-12-07T02:30:13;32.15;;;17.40;;
49241;SDS011;35079;52.704;13.814;2023-12-07T02:32:40;34.40;;;19.90;;
49241;SDS011;35079;52.704;13.814;2023-12-07T02:35:07;29.20;;;16.52;;
49241;SDS011;35079;52.704;13.814;2023-12-07T02:37:50;31.92;;;18.88;;
49241;SDS011;35079;52.704;13.814;2023-12-07T02:40:17;30.77;;;17.83;;
49241;SDS011;35079;52.704;13.814;2023-12-07T02:42:47;30.17;;;17.30;;
49241;SDS011;35079;52.704;13.814;2023-12-07T02:45:13;29.38;;;18.15;;
49241;SDS011;35079;52.704;13.814;2023-12-07T02:47:40;32.90;;;18.63;;
49241;SDS011;35079;52.704;13.814;2023-12-07T02:50:08;31.00;;;18.75;;
49241;SDS011;35079;52.704;13.814;2023-12-07T02:52:34;31.20;;;18.27;;
49241;SDS011;35079;52.704;13.814;2023-12-07T02:55:00;29.25;;;17.05;;
49241;SDS011;35079;52.704;13.814;2023-12-07T02:57:26;29.95;;;17.58;;
49241;SDS011;35079;52.704;13.814;2023-12-07T02:59:51;30.33;;;17.83;;
49241;SDS011;35079;52.704;13.814;2023-12-07T03:02:17;29.55;;;18.00;;
49241;SDS011;35079;52.704;13.814;2023-12-07T03:04:42;31.17;;;18.27;;
49241;SDS011;35079;52.704;13.814;2023-12-07T03:07:08;27.20;;;17.25;;
49241;SDS011;35079;52.704;13.814;2023-12-07T03:09:37;30.02;;;18.73;;
49241;SDS011;35079;52.704;13.814;2023-12-07T03:12:03;30.10;;;18.10;;
49241;SDS011;35079;52.704;13.814;2023-12-07T03:14:29;32.97;;;18.83;;
49241;SDS011;35079;52.704;13.814;2023-12-07T03:16:55;27.23;;;16.83;;
49241;SDS011;35079;52.704;13.814;2023-12-07T03:19:20;31.08;;;18.00;;
49241;SDS011;35079;52.704;13.814;2023-12-07T03:21:46;31.75;;;18.67;;
49241;SDS011;35079;52.704;13.814;2023-12-07T03:24:11;32.75;;;18.42;;
49241;SDS011;35079;52.704;13.814;2023-12-07T03:26:37;29.95;;;17.05;;
49241;SDS011;35079;52.704;13.814;2023-12-07T03:29:03;31.25;;;17.95;;
49241;SDS011;35079;52.704;13.814;2023-12-07T03:31:29;31.77;;;18.58;;
49241;SDS011;35079;52.704;13.814;2023-12-07T03:33:55;30.95;;;19.30;;
49241;SDS011;35079;52.704;13.814;2023-12-07T03:36:21;31.67;;;18.88;;
49241;SDS011;35079;52.704;13.814;2023-12-07T03:38:47;31.48;;;18.45;;
49241;SDS011;35079;52.704;13.814;2023-12-07T03:41:14;32.63;;;19.23;;
49241;SDS011;35079;52.704;13.814;2023-12-07T03:43:40;31.42;;;19.02;;
49241;SDS011;35079;52.704;13.814;2023-12-07T03:46:06;31.58;;;18.08;;
49241;SDS011;35079;52.704;13.814;2023-12-07T03:48:32;31.95;;;18.17;;
49241;SDS011;35079;52.704;13.814;2023-12-07T03:50:58;34.05;;;18.45;;
49241;SDS011;35079;52.704;13.814;2023-12-07T03:53:24;27.77;;;17.98;;
49241;SDS011;35079;52.704;13.814;2023-12-07T03:55:50;30.00;;;17.33;;
49241;SDS011;35079;52.704;13.814;2023-12-07T03:58:16;27.35;;;17.10;;
49241;SDS011;35079;52.704;13.814;2023-12-07T04:00:41;29.85;;;17.70;;
49241;SDS011;35079;52.704;13.814;2023-12-07T04:03:07;28.33;;;17.13;;
49241;SDS011;35079;52.704;13.814;2023-12-07T04:05:33;26.70;;;16.27;;
49241;SDS011;35079;52.704;13.814;2023-12-07T04:07:59;30.33;;;17.75;;
49241;SDS011;35079;52.704;13.814;2023-12-07T04:10:25;29.35;;;17.27;;
49241;SDS011;35079;52.704;13.814;2023-12-07T04:12:50;31.38;;;17.00;;
49241;SDS011;35079;52.704;13.814;2023-12-07T04:15:17;30.42;;;17.83;;
49241;SDS011;35079;52.704;13.814;2023-12-07T04:17:44;29.80;;;18.40;;
49241;SDS011;35079;52.704;13.814;2023-12-07T04:20:09;27.65;;;16.92;;
49241;SDS011;35079;52.704;13.814;2023-12-07T04:22:36;31.10;;;18.23;;
49241;SDS011;35079;52.704;13.814;2023-12-07T04:25:01;27.33;;;16.92;;
49241;SDS011;35079;52.704;13.814;2023-12-07T04:27:27;30.02;;;17.33;;
49241;SDS011;35079;52.704;13.814;2023-12-07T04:29:53;30.73;;;17.17;;
49241;SDS011;35079;52.704;13.814;2023-12-07T04:32:19;31.02;;;18.20;;
49241;SDS011;35079;52.704;13.814;2023-12-07T04:34:44;29.42;;;17.52;;
49241;SDS011;35079;52.704;13.814;2023-12-07T04:37:10;29.98;;;17.55;;
49241;SDS011;35079;52.704;13.814;2023-12-07T04:39:36;29.73;;;17.27;;
49241;SDS011;35079;52.704;13.814;2023-12-07T04:42:02;32.20;;;17.98;;
49241;SDS011;35079;52.704;13.814;2023-12-07T04:44:28;31.75;;;20.00;;
49241;SDS011;35079;52.704;13.814;2023-12-07T04:46:54;30.25;;;17.95;;
49241;SDS011;35079;52.704;13.814;2023-12-07T04:49:19;28.95;;;17.77;;
49241;SDS011;35079;52.704;13.814;2023-12-07T04:51:45;31.02;;;18.25;;
49241;SDS011;35079;52.704;13.814;2023-12-07T04:54:12;29.55;;;17.85;;
49241;SDS011;35079;52.704;13.814;2023-12-07T04:56:40;31.65;;;18.17;;
49241;SDS011;35079;52.704;13.814;2023-12-07T04:59:06;29.17;;;17.88;;
49241;SDS011;35079;52.704;13.814;2023-12-07T05:01:32;30.55;;;18.35;;
49241;SDS011;35079;52.704;13.814;2023-12-07T05:03:57;31.88;;;18.52;;
49241;SDS011;35079;52.704;13.814;2023-12-07T05:06:23;30.05;;;17.92;;
49241;SDS011;35079;52.704;13.814;2023-12-07T05:08:50;31.17;;;18.13;;
49241;SDS011;35079;52.704;13.814;2023-12-07T05:11:15;30.60;;;17.88;;
49241;SDS011;35079;52.704;13.814;2023-12-07T05:13:41;30.10;;;18.48;;
49241;SDS011;35079;52.704;13.814;2023-12-07T05:16:09;31.23;;;17.98;;
49241;SDS011;35079;52.704;13.814;2023-12-07T05:18:35;31.25;;;19.10;;
49241;SDS011;35079;52.704;13.814;2023-12-07T05:21:01;30.30;;;17.52;;
49241;SDS011;35079;52.704;13.814;2023-12-07T05:23:27;30.13;;;17.52;;
49241;SDS011;35079;52.704;13.814;2023-12-07T05:25:52;31.00;;;17.25;;
49241;SDS011;35079;52.704;13.814;2023-12-07T05:28:19;30.02;;;17.27;;
49241;SDS011;35079;52.704;13.814;2023-12-07T05:30:44;29.73;;;17.75;;
49241;SDS011;35079;52.704;13.814;2023-12-07T05:33:11;31.40;;;18.58;;
49241;SDS011;35079;52.704;13.814;2023-12-07T05:35:37;35.53;;;19.55;;
49241;SDS011;35079;52.704;13.814;2023-12-07T05:38:03;32.92;;;18.25;;
49241;SDS011;35079;52.704;13.814;2023-12-07T05:40:29;33.20;;;18.63;;
49241;SDS011;35079;52.704;13.814;2023-12-07T05:42:55;33.47;;;18.30;;
49241;SDS011;35079;52.704;13.814;2023-12-07T05:45:20;35.40;;;20.20;;
49241;SDS011;35079;52.704;13.814;2023-12-07T05:47:46;38.25;;;20.63;;
49241;SDS011;35079;52.704;13.814;2023-12-07T05:50:12;32.30;;;19.02;;
49241;SDS011;35079;52.704;13.814;2023-12-07T05:52:38;32.58;;;19.27;;
49241;SDS011;35079;52.704;13.814;2023-12-07T05:55:04;35.92;;;20.55;;
49241;SDS011;35079;52.704;13.814;2023-12-07T05:57:30;34.70;;;19.05;;
49241;SDS011;35079;52.704;13.814;2023-12-07T05:59:56;35.65;;;19.67;;
49241;SDS011;35079;52.704;13.814;2023-12-07T06:02:22;36.75;;;21.20;;
49241;SDS011;35079;52.704;13.814;2023-12-07T06:04:47;38.90;;;21.27;;
49241;SDS011;35079;52.704;13.814;2023-12-07T06:07:13;34.90;;;20.67;;
49241;SDS011;35079;52.704;13.814;2023-12-07T06:09:39;35.58;;;20.05;;
49241;SDS011;35079;52.704;13.814;2023-12-07T06:12:05;33.05;;;19.70;;
49241;SDS011;35079;52.704;13.814;2023-12-07T06:14:30;35.55;;;20.02;;
49241;SDS011;35079;52.704;13.814;2023-12-07T06:16:57;37.30;;;19.17;;
49241;SDS011;35079;52.704;13.814;2023-12-07T06:19:24;35.97;;;20.02;;
49241;SDS011;35079;52.704;13.814;2023-12-07T06:21:50;32.38;;;19.02;;
49241;SDS011;35079;52.704;13.814;2023-12-07T06:24:15;38.33;;;20.52;;
49241;SDS011;35079;52.704;13.814;2023-12-07T06:26:41;37.20;;;19.83;;
49241;SDS011;35079;52.704;13.814;2023-12-07T06:29:07;33.92;;;19.70;;
49241;SDS011;35079;52.704;13.814;2023-12-07T06:31:33;37.50;;;20.02;;
49241;SDS011;35079;52.704;13.814;2023-12-07T06:33:59;34.85;;;18.67;;
49241;SDS011;35079;52.704;13.814;2023-12-07T06:36:28;35.25;;;19.67;;
49241;SDS011;35079;52.704;13.814;2023-12-07T06:38:53;36.03;;;20.20;;
49241;SDS011;35079;52.704;13.814;2023-12-07T06:41:23;37.08;;;20.75;;
49241;SDS011;35079;52.704;13.814;2023-12-07T06:43:48;38.50;;;20.90;;
49241;SDS011;35079;52.704;13.814;2023-12-07T06:46:14;36.75;;;21.27;;
49241;SDS011;35079;52.704;13.814;2023-12-07T06:48:41;40.17;;;20.73;;
49241;SDS011;35079;52.704;13.814;2023-12-07T06:51:07;41.22;;;21.42;;
49241;SDS011;35079;52.704;13.814;2023-12-07T06:53:33;38.22;;;20.00;;
49241;SDS011;35079;52.704;13.814;2023-12-07T06:55:59;38.58;;;20.55;;
49241;SDS011;35079;52.704;13.814;2023-12-07T06:58:24;39.72;;;21.02;;
49241;SDS011;35079;52.704;13.814;2023-12-07T07:00:50;45.50;;;22.33;;
49241;SDS011;35079;52.704;13.814;2023-12-07T07:03:17;46.65;;;22.42;;
49241;SDS011;35079;52.704;13.814;2023-12-07T07:05:42;43.15;;;21.70;;
49241;SDS011;35079;52.704;13.814;2023-12-07T07:08:08;46.22;;;23.17;;
49241;SDS011;35079;52.704;13.814;2023-12-07T07:10:34;44.50;;;22.42;;
49241;SDS011;35079;52.704;13.814;2023-12-07T07:13:00;36.78;;;19.90;;
49241;SDS011;35079;52.704;13.814;2023-12-07T07:15:32;44.35;;;21.40;;
49241;SDS011;35079;52.704;13.814;2023-12-07T07:17:58;44.05;;;22.63;;
49241;SDS011;35079;52.704;13.814;2023-12-07T07:20:24;48.25;;;22.80;;
49241;SDS011;35079;52.704;13.814;2023-12-07T07:22:50;42.47;;;22.30;;
49241;SDS011;35079;52.704;13.814;2023-12-07T07:25:16;47.08;;;23.10;;
49241;SDS011;35079;52.704;13.814;2023-12-07T07:27:44;45.33;;;22.85;;
49241;SDS011;35079;52.704;13.814;2023-12-07T07:30:11;51.38;;;23.92;;
49241;SDS011;35079;52.704;13.814;2023-12-07T07:32:37;47.00;;;23.75;;
49241;SDS011;35079;52.704;13.814;2023-12-07T07:35:02;47.28;;;22.40;;
49241;SDS011;35079;52.704;13.814;2023-12-07T07:37:32;48.85;;;24.05;;
49241;SDS011;35079;52.704;13.814;2023-12-07T07:39:58;56.05;;;23.17;;
49241;SDS011;35079;52.704;13.814;2023-12-07T07:42:25;55.33;;;24.50;;
49241;SDS011;35079;52.704;13.814;2023-12-07T07:44:50;53.70;;;24.00;;
49241;SDS011;35079;52.704;13.814;2023-12-07T07:47:16;52.33;;;22.55;;
49241;SDS011;35079;52.704;13.814;2023-12-07T07:49:42;49.33;;;23.38;;
49241;SDS011;35079;52.704;13.814;2023-12-07T07:52:10;51.08;;;24.05;;
49241;SDS011;35079;52.704;13.814;2023-12-07T07:54:36;49.20;;;22.80;;
49241;SDS011;35079;52.704;13.814;2023-12-07T07:57:02;46.90;;;24.13;;
49241;SDS011;35079;52.704;13.814;2023-12-07T07:59:27;48.88;;;22.52;;
49241;SDS011;35079;52.704;13.814;2023-12-07T08:01:53;48.30;;;23.30;;
49241;SDS011;35079;52.704;13.814;2023-12-07T08:04:19;48.20;;;22.30;;
49241;SDS011;35079;52.704;13.814;2023-12-07T08:06:44;43.33;;;22.08;;
49241;SDS011;35079;52.704;13.814;2023-12-07T08:09:10;47.22;;;22.92;;
49241;SDS011;35079;52.704;13.814;2023-12-07T08:11:36;43.20;;;22.80;;
49241;SDS011;35079;52.704;13.814;2023-12-07T08:14:01;45.30;;;23.05;;
49241;SDS011;35079;52.704;13.814;2023-12-07T08:16:27;43.92;;;22.75;;
49241;SDS011;35079;52.704;13.814;2023-12-07T08:18:52;44.70;;;21.92;;
49241;SDS011;35079;52.704;13.814;2023-12-07T08:21:19;42.00;;;21.90;;
49241;SDS011;35079;52.704;13.814;2023-12-07T08:23:49;43.90;;;21.70;;
49241;SDS011;35079;52.704;13.814;2023-12-07T08:26:15;48.92;;;24.77;;
49241;SDS011;35079;52.704;13.814;2023-12-07T08:28:41;46.30;;;24.27;;
49241;SDS011;35079;52.704;13.814;2023-12-07T08:31:06;42.65;;;21.70;;
49241;SDS011;35079;52.704;13.814;2023-12-07T08:33:32;48.67;;;24.08;;
49241;SDS011;35079;52.704;13.814;2023-12-07T08:36:03;44.10;;;22.90;;
49241;SDS011;35079;52.704;13.814;2023-12-07T08:38:29;51.65;;;24.08;;
49241;SDS011;35079;52.704;13.814;2023-12-07T08:40:58;39.70;;;21.30;;
49241;SDS011;35079;52.704;13.814;2023-12-07T08:43:27;43.42;;;22.30;;
49241;SDS011;35079;52.704;13.814;2023-12-07T08:45:55;44.67;;;22.35;;
49241;SDS011;35079;52.704;13.814;2023-12-07T08:48:21;45.65;;;22.75;;
49241;SDS011;35079;52.704;13.814;2023-12-07T08:50:47;41.50;;;22.70;;
49241;SDS011;35079;52.704;13.814;2023-12-07T08:53:12;38.00;;;20.48;;
49241;SDS011;35079;52.704;13.814;2023-12-07T08:55:38;39.85;;;21.90;;
49241;SDS011;35079;52.704;13.814;2023-12-07T08:58:04;43.33;;;20.83;;
49241;SDS011;35079;52.704;13.814;2023-12-07T09:00:31;38.15;;;21.92;;
49241;SDS011;35079;52.704;13.814;2023-12-07T09:02:57;42.90;;;21.77;;
49241;SDS011;35079;52.704;13.814;2023-12-07T09:05:23;37.45;;;20.73;;
49241;SDS011;35079;52.704;13.814;2023-12-07T09:07:48;38.63;;;21.63;;
49241;SDS011;35079;52.704;13.814;2023-12-07T09:10:14;41.55;;;22.40;;
49241;SDS011;35079;52.704;13.814;2023-12-07T09:12:40;40.30;;;22.33;;
49241;SDS011;35079;52.704;13.814;2023-12-07T09:15:06;40.63;;;22.27;;
49241;SDS011;35079;52.704;13.814;2023-12-07T09:17:35;41.65;;;22.20;;
49241;SDS011;35079;52.704;13.814;2023-12-07T09:20:04;44.00;;;23.27;;
49241;SDS011;35079;52.704;13.814;2023-12-07T09:22:32;40.92;;;23.05;;
49241;SDS011;35079;52.704;13.814;2023-12-07T09:24:57;37.75;;;21.52;;
49241;SDS011;35079;52.704;13.814;2023-12-07T09:27:23;38.92;;;21.33;;
49241;SDS011;35079;52.704;13.814;2023-12-07T09:29:49;37.20;;;22.25;;
49241;SDS011;35079;52.704;13.814;2023-12-07T09:32:16;47.15;;;22.98;;
49241;SDS011;35079;52.704;13.814;2023-12-07T09:34:42;46.78;;;23.85;;
49241;SDS011;35079;52.704;13.814;2023-12-07T09:37:10;43.35;;;23.30;;
49241;SDS011;35079;52.704;13.814;2023-12-07T09:39:36;47.38;;;23.40;;
49241;SDS011;35079;52.704;13.814;2023-12-07T09:42:02;44.75;;;24.80;;
49241;SDS011;35079;52.704;13.814;2023-12-07T09:44:28;41.28;;;23.02;;
49241;SDS011;35079;52.704;13.814;2023-12-07T09:46:54;40.53;;;22.23;;
49241;SDS011;35079;52.704;13.814;2023-12-07T09:49:20;46.83;;;23.75;;
49241;SDS011;35079;52.704;13.814;2023-12-07T09:51:46;45.78;;;23.73;;
49241;SDS011;35079;52.704;13.814;2023-12-07T09:54:13;48.33;;;24.23;;
49241;SDS011;35079;52.704;13.814;2023-12-07T09:56:39;53.05;;;25.73;;
49241;SDS011;35079;52.704;13.814;2023-12-07T09:59:06;50.17;;;24.48;;
49241;SDS011;35079;52.704;13.814;2023-12-07T10:01:32;50.22;;;25.80;;
49241;SDS011;35079;52.704;13.814;2023-12-07T10:04:20;47.00;;;26.00;;
49241;SDS011;35079;52.704;13.814;2023-12-07T10:06:51;48.25;;;23.67;;
49241;SDS011;35079;52.704;13.814;2023-12-07T10:09:19;50.78;;;25.73;;
49241;SDS011;35079;52.704;13.814;2023-12-07T10:11:46;45.08;;;24.77;;
49241;SDS011;35079;52.704;13.814;2023-12-07T10:14:12;48.15;;;23.95;;
49241;SDS011;35079;52.704;13.814;2023-12-07T10:16:38;47.95;;;24.95;;
49241;SDS011;35079;52.704;13.814;2023-12-07T10:19:13;50.60;;;24.83;;
49241;SDS011;35079;52.704;13.814;2023-12-07T10:21:42;46.30;;;24.33;;
49241;SDS011;35079;52.704;13.814;2023-12-07T10:24:08;47.90;;;24.27;;
49241;SDS011;35079;52.704;13.814;2023-12-07T10:26:34;49.10;;;25.33;;
49241;SDS011;35079;52.704;13.814;2023-12-07T10:29:06;51.10;;;25.13;;
49241;SDS011;35079;52.704;13.814;2023-12-07T10:31:32;51.63;;;24.45;;
49241;SDS011;35079;52.704;13.814;2023-12-07T10:33:59;51.60;;;24.70;;
49241;SDS011;35079;52.704;13.814;2023-12-07T10:36:25;51.17;;;23.60;;
49241;SDS011;35079;52.704;13.814;2023-12-07T10:38:51;49.38;;;24.13;;
49241;SDS011;35079;52.704;13.814;2023-12-07T10:41:21;46.15;;;23.13;;
49241;SDS011;35079;52.704;13.814;2023-12-07T10:43:53;45.90;;;23.58;;
49241;SDS011;35079;52.704;13.814;2023-12-07T10:46:22;50.25;;;24.88;;
49241;SDS011;35079;52.704;13.814;2023-12-07T10:48:48;50.47;;;24.23;;
49241;SDS011;35079;52.704;13.814;2023-12-07T10:51:23;46.55;;;22.75;;
49241;SDS011;35079;52.704;13.814;2023-12-07T10:53:54;47.08;;;23.98;;
49241;SDS011;35079;52.704;13.814;2023-12-07T10:56:35;47.70;;;24.85;;
49241;SDS011;35079;52.704;13.814;2023-12-07T10:59:07;42.95;;;22.25;;
49241;SDS011;35079;52.704;13.814;2023-12-07T11:01:37;48.78;;;23.85;;
49241;SDS011;35079;52.704;13.814;2023-12-07T11:04:04;41.28;;;23.00;;
49241;SDS011;35079;52.704;13.814;2023-12-07T11:06:31;46.78;;;23.73;;
49241;SDS011;35079;52.704;13.814;2023-12-07T11:09:01;42.45;;;23.23;;
49241;SDS011;35079;52.704;13.814;2023-12-07T11:11:46;45.97;;;23.55;;
49241;SDS011;35079;52.704;13.814;2023-12-07T11:14:18;43.13;;;22.08;;
49241;SDS011;35079;52.704;13.814;2023-12-07T11:16:47;47.70;;;23.35;;
49241;SDS011;35079;52.704;13.814;2023-12-07T11:22:05;47.05;;;22.75;;
49241;SDS011;35079;52.704;13.814;2023-12-07T11:24:32;42.67;;;22.88;;
49241;SDS011;35079;52.704;13.814;2023-12-07T11:26:58;45.42;;;22.30;;
49241;SDS011;35079;52.704;13.814;2023-12-07T11:29:24;43.13;;;22.23;;
49241;SDS011;35079;52.704;13.814;2023-12-07T11:31:51;49.05;;;23.98;;
49241;SDS011;35079;52.704;13.814;2023-12-07T11:34:36;46.38;;;23.98;;
49241;SDS011;35079;52.704;13.814;2023-12-07T11:37:06;46.67;;;22.92;;
49241;SDS011;35079;52.704;13.814;2023-12-07T11:39:36;53.17;;;24.50;;
49241;SDS011;35079;52.704;13.814;2023-12-07T11:42:06;46.30;;;22.45;;
49241;SDS011;35079;52.704;13.814;2023-12-07T11:44:43;43.53;;;22.88;;
49241;SDS011;35079;52.704;13.814;2023-12-07T11:47:15;45.28;;;22.48;;
49241;SDS011;35079;52.704;13.814;2023-12-07T11:49:46;43.47;;;21.13;;
49241;SDS011;35079;52.704;13.814;2023-12-07T11:52:15;41.35;;;21.45;;
49241;SDS011;35079;52.704;13.814;2023-12-07T11:54:43;41.45;;;22.02;;
49241;SDS011;35079;52.704;13.814;2023-12-07T11:57:13;43.00;;;21.58;;
49241;SDS011;35079;52.704;13.814;2023-12-07T11:59:43;43.50;;;22.08;;
49241;SDS011;35079;52.704;13.814;2023-12-07T12:02:18;41.33;;;21.25;;
49241;SDS011;35079;52.704;13.814;2023-12-07T12:04:44;46.88;;;22.92;;
49241;SDS011;35079;52.704;13.814;2023-12-07T12:07:09;46.45;;;22.63;;
49241;SDS011;35079;52.704;13.814;2023-12-07T12:09:35;48.88;;;23.58;;
49241;SDS011;35079;52.704;13.814;2023-12-07T12:12:01;46.38;;;23.17;;
49241;SDS011;35079;52.704;13.814;2023-12-07T12:14:27;48.35;;;21.92;;
49241;SDS011;35079;52.704;13.814;2023-12-07T12:16:53;46.83;;;23.73;;
49241;SDS011;35079;52.704;13.814;2023-12-07T12:19:21;47.13;;;22.65;;
49241;SDS011;35079;52.704;13.814;2023-12-07T12:21:50;43.80;;;23.33;;
49241;SDS011;35079;52.704;13.814;2023-12-07T12:24:16;42.83;;;22.65;;
49241;SDS011;35079;52.704;13.814;2023-12-07T12:26:42;44.78;;;23.27;;
49241;SDS011;35079;52.704;13.814;2023-12-07T12:29:09;46.25;;;23.63;;
49241;SDS011;35079;52.704;13.814;2023-12-07T12:31:36;49.72;;;24.00;;
49241;SDS011;35079;52.704;13.814;2023-12-07T12:34:03;46.58;;;23.77;;
49241;SDS011;35079;52.704;13.814;2023-12-07T12:36:34;48.75;;;24.23;;
49241;SDS011;35079;52.704;13.814;2023-12-07T12:39:00;49.60;;;25.00;;
49241;SDS011;35079;52.704;13.814;2023-12-07T12:41:27;47.25;;;23.67;;
49241;SDS011;35079;52.704;13.814;2023-12-07T12:43:55;46.88;;;23.67;;
49241;SDS011;35079;52.704;13.814;2023-12-07T12:46:21;48.85;;;24.20;;
49241;SDS011;35079;52.704;13.814;2023-12-07T12:48:57;46.47;;;23.50;;
49241;SDS011;35079;52.704;13.814;2023-12-07T12:51:23;51.90;;;24.55;;
49241;SDS011;35079;52.704;13.814;2023-12-07T12:53:51;51.60;;;23.75;;
49241;SDS011;35079;52.704;13.814;2023-12-07T12:56:18;48.50;;;24.38;;
49241;SDS011;35079;52.704;13.814;2023-12-07T12:58:48;48.42;;;24.00;;
49241;SDS011;35079;52.704;13.814;2023-12-07T13:01:15;51.50;;;24.23;;
49241;SDS011;35079;52.704;13.814;2023-12-07T13:03:42;51.95;;;24.98;;
49241;SDS011;35079;52.704;13.814;2023-12-07T13:06:12;51.00;;;23.65;;
49241;SDS011;35079;52.704;13.814;2023-12-07T13:08:39;47.45;;;23.17;;
49241;SDS011;35079;52.704;13.814;2023-12-07T13:11:14;46.30;;;22.83;;
49241;SDS011;35079;52.704;13.814;2023-12-07T13:13:41;45.10;;;22.50;;
49241;SDS011;35079;52.704;13.814;2023-12-07T13:16:07;49.85;;;24.35;;
49241;SDS011;35079;52.704;13.814;2023-12-07T13:18:33;48.67;;;23.42;;
49241;SDS011;35079;52.704;13.814;2023-12-07T13:21:02;50.22;;;24.00;;
49241;SDS011;35079;52.704;13.814;2023-12-07T13:23:28;44.80;;;22.17;;
49241;SDS011;35079;52.704;13.814;2023-12-07T13:25:53;43.90;;;22.75;;
49241;SDS011;35079;52.704;13.814;2023-12-07T13:28:19;47.42;;;23.08;;
49241;SDS011;35079;52.704;13.814;2023-12-07T13:30:45;44.03;;;22.35;;
49241;SDS011;35079;52.704;13.814;2023-12-07T13:33:11;42.58;;;22.42;;
49241;SDS011;35079;52.704;13.814;2023-12-07T13:35:36;46.58;;;22.08;;
49241;SDS011;35079;52.704;13.814;2023-12-07T13:38:02;46.70;;;22.95;;
49241;SDS011;35079;52.704;13.814;2023-12-07T13:40:28;44.63;;;22.83;;
49241;SDS011;35079;52.704;13.814;2023-12-07T13:42:54;45.72;;;22.95;;
49241;SDS011;35079;52.704;13.814;2023-12-07T13:45:20;47.90;;;22.52;;
49241;SDS011;35079;52.704;13.814;2023-12-07T13:47:45;42.35;;;22.08;;
49241;SDS011;35079;52.704;13.814;2023-12-07T13:50:12;44.65;;;21.75;;
49241;SDS011;35079;52.704;13.814;2023-12-07T13:52:38;44.17;;;22.58;;
49241;SDS011;35079;52.704;13.814;2023-12-07T13:55:04;48.28;;;21.77;;
49241;SDS011;35079;52.704;13.814;2023-12-07T13:57:30;48.33;;;23.58;;
49241;SDS011;35079;52.704;13.814;2023-12-07T13:59:55;45.63;;;22.58;;
49241;SDS011;35079;52.704;13.814;2023-12-07T14:02:22;50.22;;;22.30;;
49241;SDS011;35079;52.704;13.814;2023-12-07T14:04:48;44.58;;;21.27;;
49241;SDS011;35079;52.704;13.814;2023-12-07T14:07:15;45.45;;;21.80;;
49241;SDS011;35079;52.704;13.814;2023-12-07T14:09:46;46.58;;;22.13;;
49241;SDS011;35079;52.704;13.814;2023-12-07T14:12:14;50.45;;;22.13;;
49241;SDS011;35079;52.704;13.814;2023-12-07T14:14:42;45.58;;;21.98;;